Time;durP1;ratioP1;P1;durP2;ratioP2;P2;SDS_P1;SDS_P2;PMS_P1;PMS_P2;Temp;Humidity;BMP_temperature;BMP_pressure;BME280_temperature;BME280_humidity;BME280_pressure;Samples;Min_cycle;Max_cycle;Signal;HPM_P1;HPM_P2
2021/04/26 00:01:31;;;;;;;12.15;1.30;;;3.10;98.10;;;;;;5034209;28;20075;-64
2021/04/26 00:03:58;;;;;;;6.45;1.50;;;3.10;98.20;;;;;;5031882;28;20029;-63
2021/04/26 00:06:24;;;;;;;5.57;1.15;;;3.20;98.20;;;;;;5033369;28;20072;-63
2021/04/26 00:08:50;;;;;;;6.05;1.05;;;3.10;98.00;;;;;;5031955;28;20068;-63
2021/04/26 00:11:15;;;;;;;6.10;1.27;;;3.00;97.90;;;;;;5033722;28;20077;-63
2021/04/26 00:13:41;;;;;;;8.43;1.73;;;3.00;97.90;;;;;;5033480;28;20048;-63
2021/04/26 00:16:07;;;;;;;6.95;1.30;;;3.00;97.90;;;;;;5033259;28;20574;-64
2021/04/26 00:18:33;;;;;;;6.32;2.00;;;3.00;97.80;;;;;;5031416;28;20048;-63
2021/04/26 00:20:59;;;;;;;8.13;1.75;;;3.00;97.80;;;;;;5034201;28;20068;-63
2021/04/26 00:23:25;;;;;;;8.13;1.10;;;3.00;97.70;;;;;;5034296;28;20041;-64
2021/04/26 00:25:50;;;;;;;4.00;1.08;;;3.00;97.70;;;;;;5030866;28;20042;-63
2021/04/26 00:28:16;;;;;;;7.15;1.27;;;3.00;97.70;;;;;;5033199;28;20044;-63
2021/04/26 00:30:41;;;;;;;7.22;1.45;;;3.00;97.70;;;;;;5033386;28;20047;-63
2021/04/26 00:33:08;;;;;;;6.63;1.20;;;2.90;97.70;;;;;;5032841;28;20082;-63
2021/04/26 00:35:34;;;;;;;11.65;1.10;;;2.90;97.70;;;;;;5034226;28;20037;-63
2021/04/26 00:37:59;;;;;;;5.40;1.58;;;2.90;97.70;;;;;;5023687;28;20046;-63
2021/04/26 00:40:25;;;;;;;3.63;1.10;;;2.90;97.70;;;;;;5032271;28;20044;-63
2021/04/26 00:42:52;;;;;;;6.20;1.38;;;2.80;97.60;;;;;;5033395;28;20426;-63
2021/04/26 00:45:20;;;;;;;5.43;1.20;;;2.80;97.60;;;;;;5032375;28;20115;-63
2021/04/26 00:47:48;;;;;;;8.23;1.70;;;2.80;97.70;;;;;;5027922;28;20051;-63
2021/04/26 00:50:20;;;;;;;6.88;1.63;;;2.80;97.70;;;;;;5025018;28;20467;-63
2021/04/26 00:52:48;;;;;;;8.35;2.50;;;2.70;97.70;;;;;;5027995;28;20037;-63
2021/04/26 00:55:14;;;;;;;7.20;2.00;;;2.70;97.70;;;;;;5027473;28;20114;-63
2021/04/26 00:57:40;;;;;;;7.47;1.30;;;2.70;97.70;;;;;;5030818;28;20033;-63
2021/04/26 01:00:08;;;;;;;4.20;1.17;;;2.80;97.60;;;;;;5029719;28;20505;-63
2021/04/26 01:02:34;;;;;;;9.95;0.88;;;2.70;97.60;;;;;;5027696;28;20167;-63
2021/04/26 01:05:00;;;;;;;8.55;0.98;;;2.70;97.60;;;;;;5031096;28;20124;-63
2021/04/26 01:07:30;;;;;;;6.07;1.15;;;2.70;97.50;;;;;;5027201;28;20057;-63
2021/04/26 01:09:56;;;;;;;6.05;1.30;;;2.60;97.40;;;;;;5029227;28;20041;-63
2021/04/26 01:12:43;;;;;;;9.15;1.67;;;2.60;97.30;;;;;;5028064;28;20068;-63
2021/04/26 01:15:18;;;;;;;11.52;3.08;;;2.60;97.30;;;;;;5025271;28;20381;-63
2021/04/26 01:17:54;;;;;;;8.63;1.48;;;2.60;97.40;;;;;;5026714;28;20052;-63
2021/04/26 01:20:50;;;;;;;5.55;1.40;;;2.60;97.40;;;;;;5025173;28;20482;-63
2021/04/26 01:23:34;;;;;;;6.75;1.85;;;2.50;97.40;;;;;;5030132;28;20049;-63
2021/04/26 01:26:01;;;;;;;8.55;1.50;;;2.50;97.30;;;;;;5025946;28;20124;-63
2021/04/26 01:28:56;;;;;;;8.07;1.52;;;2.50;97.30;;;;;;5028578;28;20116;-63
2021/04/26 01:31:34;;;;;;;6.72;1.48;;;2.50;97.40;;;;;;5027257;28;20040;-63
2021/04/26 01:34:00;;;;;;;7.13;1.55;;;2.40;97.30;;;;;;5028372;28;20037;-63
2021/04/26 01:36:28;;;;;;;7.47;1.52;;;2.40;97.30;;;;;;5029977;28;20060;-63
2021/04/26 01:38:56;;;;;;;5.55;1.33;;;2.50;97.30;;;;;;5028045;28;20033;-63
2021/04/26 01:41:25;;;;;;;7.70;1.65;;;2.40;97.30;;;;;;5028696;28;20067;-63
2021/04/26 01:43:52;;;;;;;9.73;1.60;;;2.40;97.40;;;;;;5029021;28;20357;-63
2021/04/26 01:46:19;;;;;;;6.97;1.80;;;2.40;97.40;;;;;;5027247;28;20045;-63
2021/04/26 01:48:48;;;;;;;14.25;1.85;;;2.30;97.50;;;;;;5026451;28;20037;-64
2021/04/26 01:51:14;;;;;;;7.78;1.33;;;2.40;97.80;;;;;;5028941;28;20069;-63
2021/04/26 01:53:43;;;;;;;5.32;1.73;;;2.30;97.60;;;;;;5027727;28;20041;-63
2021/04/26 01:56:11;;;;;;;8.80;1.63;;;2.20;97.70;;;;;;5029144;28;20398;-63
2021/04/26 01:58:40;;;;;;;3.83;1.30;;;2.20;97.80;;;;;;5029830;28;20073;-63
2021/04/26 02:01:06;;;;;;;9.38;1.67;;;2.20;97.90;;;;;;5028154;28;20045;-63
2021/04/26 02:03:34;;;;;;;6.13;0.98;;;2.30;98.00;;;;;;5026351;28;20116;-63
2021/04/26 02:06:01;;;;;;;7.30;1.70;;;2.20;98.10;;;;;;5029021;28;20045;-63
2021/04/26 02:08:28;;;;;;;6.82;1.52;;;2.40;98.30;;;;;;5026081;28;20056;-63
2021/04/26 02:10:54;;;;;;;7.63;1.58;;;2.20;98.30;;;;;;5027045;28;20037;-63
2021/04/26 02:13:22;;;;;;;9.60;2.00;;;2.30;98.30;;;;;;5028612;28;20967;-63
2021/04/26 02:15:50;;;;;;;6.50;1.65;;;2.30;98.30;;;;;;5028541;28;20037;-63
2021/04/26 02:18:16;;;;;;;5.85;1.80;;;2.20;98.40;;;;;;5026270;28;20396;-63
2021/04/26 02:20:42;;;;;;;5.97;1.60;;;2.20;98.40;;;;;;5028056;28;20407;-63
2021/04/26 02:23:08;;;;;;;7.28;1.67;;;2.30;98.40;;;;;;5028751;28;20040;-63
2021/04/26 02:25:33;;;;;;;7.07;1.25;;;2.20;98.40;;;;;;5025290;28;20041;-63
2021/04/26 02:27:59;;;;;;;5.05;1.30;;;2.20;98.40;;;;;;5025499;28;20046;-63
2021/04/26 02:30:27;;;;;;;7.13;1.48;;;2.10;98.40;;;;;;5025306;28;20141;-63
2021/04/26 02:33:15;;;;;;;3.92;1.50;;;2.20;98.30;;;;;;5025808;28;20553;-63
2021/04/26 02:35:45;;;;;;;3.83;1.42;;;2.10;98.30;;;;;;5024268;28;20051;-63
2021/04/26 02:38:47;;;;;;;6.78;1.40;;;2.10;98.20;;;;;;5027453;28;20064;-63
2021/04/26 02:41:24;;;;;;;5.05;1.38;;;2.10;98.00;;;;;;5007490;28;20131;-63
2021/04/26 02:43:53;;;;;;;4.43;1.30;;;2.00;98.00;;;;;;5027472;28;20468;-63
2021/04/26 02:46:22;;;;;;;7.05;1.90;;;2.00;98.00;;;;;;5026831;28;20060;-63
2021/04/26 02:48:50;;;;;;;5.93;1.45;;;2.20;98.00;;;;;;5027192;28;20038;-63
2021/04/26 02:51:18;;;;;;;7.47;1.42;;;2.00;98.00;;;;;;5025266;28;20133;-63
2021/04/26 02:53:44;;;;;;;5.03;1.42;;;2.00;98.00;;;;;;5025783;28;20076;-63
2021/04/26 02:56:15;;;;;;;3.70;1.10;;;2.00;98.00;;;;;;5027672;28;20376;-63
2021/04/26 02:58:45;;;;;;;4.53;1.60;;;1.90;98.00;;;;;;5028845;28;20045;-63
2021/04/26 03:01:12;;;;;;;3.95;1.00;;;1.90;97.80;;;;;;5025144;28;20045;-63
2021/04/26 03:03:41;;;;;;;7.03;1.27;;;1.90;97.80;;;;;;5024941;28;20068;-63
2021/04/26 03:06:07;;;;;;;6.90;1.52;;;1.90;97.80;;;;;;5026937;28;20049;-63
2021/04/26 03:08:34;;;;;;;4.82;1.63;;;1.90;97.80;;;;;;5027699;28;20041;-64
2021/04/26 03:11:05;;;;;;;3.25;1.27;;;1.80;97.70;;;;;;5027275;28;20372;-63
2021/04/26 03:13:31;;;;;;;6.10;1.40;;;1.80;97.80;;;;;;5027664;28;20045;-63
2021/04/26 03:15:57;;;;;;;6.15;1.50;;;1.80;97.90;;;;;;5024733;28;20037;-63
2021/04/26 03:18:23;;;;;;;9.38;1.38;;;2.00;98.00;;;;;;5027670;28;20061;-64
2021/04/26 03:20:50;;;;;;;9.52;2.45;;;1.80;98.00;;;;;;5026344;28;20033;-63
2021/04/26 03:23:25;;;;;;;5.50;1.50;;;1.80;97.90;;;;;;5028494;28;20087;-63
2021/04/26 03:25:56;;;;;;;6.00;2.35;;;1.70;97.90;;;;;;5027212;28;20060;-63
2021/04/26 03:28:22;;;;;;;3.47;1.13;;;1.80;97.90;;;;;;5028127;28;20041;-63
2021/04/26 03:30:48;;;;;;;3.63;1.30;;;1.80;97.90;;;;;;5027427;28;20047;-63
2021/04/26 03:33:15;;;;;;;4.63;1.35;;;1.70;97.80;;;;;;5025321;28;20132;-63
2021/04/26 03:35:42;;;;;;;4.82;1.50;;;1.70;97.80;;;;;;5028526;28;20034;-63
2021/04/26 03:38:10;;;;;;;6.28;1.30;;;1.60;97.80;;;;;;5029279;28;20431;-63
2021/04/26 03:40:37;;;;;;;6.07;1.30;;;1.50;97.70;;;;;;5024867;28;20041;-63
2021/04/26 03:43:03;;;;;;;5.20;1.30;;;1.50;97.70;;;;;;5028593;28;20038;-63
2021/04/26 03:45:29;;;;;;;5.07;1.40;;;1.50;97.80;;;;;;5027006;28;20092;-63
2021/04/26 03:47:56;;;;;;;3.58;1.23;;;1.50;97.80;;;;;;5021610;28;20092;-63
2021/04/26 03:50:23;;;;;;;6.05;1.30;;;1.50;98.10;;;;;;5026807;28;20112;-63
2021/04/26 03:52:49;;;;;;;6.47;1.70;;;1.40;97.80;;;;;;5026703;28;20053;-63
2021/04/26 03:55:19;;;;;;;3.75;1.10;;;1.50;97.90;;;;;;5026806;28;20092;-63
2021/04/26 03:57:45;;;;;;;4.05;1.42;;;1.40;97.90;;;;;;5027385;28;20041;-63
2021/04/26 04:00:12;;;;;;;6.32;1.48;;;1.40;97.90;;;;;;5026092;28;20048;-63
2021/04/26 04:02:39;;;;;;;5.50;1.83;;;1.40;97.90;;;;;;5024837;28;20042;-63
2021/04/26 04:05:06;;;;;;;5.22;1.20;;;1.40;98.00;;;;;;5028401;28;20052;-63
2021/04/26 04:07:35;;;;;;;3.40;1.67;;;1.40;98.00;;;;;;5030031;28;20053;-63
2021/04/26 04:10:08;;;;;;;4.43;1.40;;;1.40;98.10;;;;;;5019640;28;20046;-63
2021/04/26 04:12:34;;;;;;;6.88;1.90;;;1.50;98.40;;;;;;5025240;28;20393;-63
2021/04/26 04:15:00;;;;;;;6.20;1.50;;;1.40;98.60;;;;;;5027192;28;20050;-63
2021/04/26 04:17:26;;;;;;;4.68;2.13;;;1.50;98.70;;;;;;5027313;28;20095;-63
2021/04/26 04:19:53;;;;;;;2.55;1.50;;;1.50;98.70;;;;;;5028110;28;20033;-63
2021/04/26 04:22:19;;;;;;;4.45;2.13;;;1.50;98.70;;;;;;5026919;28;20041;-63
2021/04/26 04:24:44;;;;;;;5.53;2.05;;;1.50;98.50;;;;;;5029910;28;20057;-63
2021/04/26 04:27:10;;;;;;;3.95;1.13;;;1.50;98.50;;;;;;5030232;28;20041;-63
2021/04/26 04:29:36;;;;;;;3.20;1.15;;;1.60;98.30;;;;;;5031054;28;20164;-63
2021/04/26 04:32:02;;;;;;;9.18;1.42;;;1.40;98.20;;;;;;5031928;28;20499;-63
2021/04/26 04:34:28;;;;;;;7.45;1.55;;;1.40;98.20;;;;;;5031420;28;20116;-63
2021/04/26 04:36:53;;;;;;;4.85;1.58;;;1.50;98.30;;;;;;5030164;28;20104;-63
2021/04/26 04:39:19;;;;;;;4.18;1.50;;;1.60;98.30;;;;;;5029436;28;20112;-63
2021/04/26 04:41:45;;;;;;;5.25;1.65;;;1.60;98.30;;;;;;5029988;28;20049;-63
2021/04/26 04:44:11;;;;;;;3.80;1.55;;;1.70;98.40;;;;;;5030251;28;20041;-63
2021/04/26 04:46:36;;;;;;;4.68;1.80;;;1.90;98.50;;;;;;5029680;28;20096;-63
2021/04/26 04:49:02;;;;;;;4.72;1.45;;;2.20;98.60;;;;;;5029266;28;20121;-63
2021/04/26 04:51:28;;;;;;;3.85;1.15;;;2.60;98.50;;;;;;5031160;28;20029;-63
2021/04/26 04:53:53;;;;;;;7.10;1.52;;;3.20;98.20;;;;;;5029617;28;20044;-63
2021/04/26 04:56:19;;;;;;;6.65;1.33;;;3.90;97.60;;;;;;5030863;28;20041;-63
2021/04/26 04:58:46;;;;;;;3.50;1.02;;;4.50;96.90;;;;;;5031596;28;20045;-63
2021/04/26 05:01:12;;;;;;;3.17;1.20;;;5.20;96.00;;;;;;5028228;28;20056;-63
2021/04/26 05:03:38;;;;;;;3.47;1.25;;;5.90;95.10;;;;;;5031733;28;20087;-63
2021/04/26 05:06:04;;;;;;;5.43;0.80;;;6.70;94.40;;;;;;5028446;28;20041;-63
2021/04/26 05:08:29;;;;;;;7.18;1.20;;;7.60;93.20;;;;;;5029412;28;20127;-63
2021/04/26 05:10:56;;;;;;;2.78;0.95;;;8.60;91.70;;;;;;5029771;28;20045;-63
2021/04/26 05:13:23;;;;;;;3.35;0.90;;;9.60;90.00;;;;;;5029262;28;21127;-63
2021/04/26 05:15:49;;;;;;;2.85;0.73;;;10.50;85.60;;;;;;5030687;28;20037;-63
2021/04/26 05:18:14;;;;;;;2.30;0.80;;;11.50;82.90;;;;;;5028488;28;20055;-63
2021/04/26 05:20:42;;;;;;;5.63;1.00;;;12.40;79.30;;;;;;5030463;28;20045;-63
2021/04/26 05:23:09;;;;;;;5.10;1.63;;;13.20;74.30;;;;;;5030206;28;20054;-63
2021/04/26 05:25:36;;;;;;;1.90;0.70;;;14.00;69.30;;;;;;5023522;28;20047;-63
2021/04/26 05:28:02;;;;;;;4.82;1.30;;;14.90;66.00;;;;;;5029505;28;20038;-63
2021/04/26 05:30:29;;;;;;;2.88;0.75;;;15.70;62.50;;;;;;5025300;28;20557;-64
2021/04/26 05:32:55;;;;;;;5.03;0.82;;;16.50;59.40;;;;;;5031200;28;20640;-63
2021/04/26 05:35:21;;;;;;;3.85;0.90;;;17.40;55.70;;;;;;5030111;28;20148;-64
2021/04/26 05:37:47;;;;;;;3.53;0.82;;;18.00;53.60;;;;;;5031129;28;20476;-64
2021/04/26 05:40:14;;;;;;;3.80;0.95;;;18.70;51.70;;;;;;5030978;28;20072;-64
2021/04/26 05:42:40;;;;;;;3.40;1.00;;;19.40;49.10;;;;;;5031253;28;20056;-64
2021/04/26 05:45:06;;;;;;;3.85;0.80;;;20.10;47.00;;;;;;5030435;28;20072;-64
2021/04/26 05:47:32;;;;;;;13.52;0.90;;;20.80;45.20;;;;;;5027857;28;20041;-64
2021/04/26 05:49:58;;;;;;;4.28;0.70;;;21.50;43.60;;;;;;5029516;28;20091;-64
2021/04/26 05:52:24;;;;;;;4.07;1.10;;;22.10;42.40;;;;;;5028523;28;20037;-64
2021/04/26 05:54:50;;;;;;;5.00;1.35;;;22.50;41.30;;;;;;5041525;28;20536;-64
2021/04/26 05:57:16;;;;;;;3.58;0.80;;;23.00;40.30;;;;;;5029883;28;20530;-64
2021/04/26 05:59:41;;;;;;;3.53;1.00;;;23.50;39.20;;;;;;5030035;28;20439;-64
2021/04/26 06:02:07;;;;;;;3.20;1.00;;;24.10;37.90;;;;;;5025669;28;21359;-64
2021/04/26 06:04:33;;;;;;;5.43;0.95;;;24.50;37.20;;;;;;5028326;28;20148;-64
2021/04/26 06:06:59;;;;;;;3.90;0.68;;;24.80;36.00;;;;;;5028613;28;20140;-64
2021/04/26 06:09:25;;;;;;;3.85;0.70;;;24.80;35.90;;;;;;5028706;28;20067;-65
2021/04/26 06:11:51;;;;;;;2.65;1.00;;;24.80;36.10;;;;;;5028281;28;20041;-65
2021/04/26 06:14:17;;;;;;;4.47;1.10;;;24.10;34.60;;;;;;5024838;28;20564;-64
2021/04/26 06:16:43;;;;;;;2.42;0.73;;;23.70;36.10;;;;;;5029425;28;20415;-65
2021/04/26 06:19:09;;;;;;;3.58;0.93;;;22.50;37.40;;;;;;5027376;28;20041;-65
2021/04/26 06:21:34;;;;;;;3.45;1.00;;;21.50;40.10;;;;;;5029270;28;20037;-65
2021/04/26 06:24:00;;;;;;;4.93;1.13;;;20.40;43.10;;;;;;5024638;28;20049;-65
2021/04/26 06:26:26;;;;;;;5.18;1.13;;;19.50;45.00;;;;;;5027192;28;20589;-65
2021/04/26 06:28:52;;;;;;;3.15;0.70;;;18.60;45.30;;;;;;5028909;28;20068;-64
2021/04/26 06:31:18;;;;;;;4.22;0.70;;;17.50;46.80;;;;;;5029208;28;20093;-65
2021/04/26 06:33:44;;;;;;;3.83;0.57;;;16.70;49.70;;;;;;5026918;28;20052;-65
2021/04/26 06:36:10;;;;;;;8.30;1.70;;;16.00;50.80;;;;;;5023439;28;20048;-65
2021/04/26 06:38:36;;;;;;;3.75;0.90;;;15.00;53.00;;;;;;5028708;28;20494;-65
2021/04/26 06:41:02;;;;;;;7.63;1.23;;;14.50;55.40;;;;;;5024090;28;20095;-65
2021/04/26 06:43:28;;;;;;;7.15;1.35;;;14.10;56.80;;;;;;5024872;28;20041;-64
2021/04/26 06:45:55;;;;;;;5.22;1.02;;;13.70;59.30;;;;;;5026545;28;20049;-64
2021/04/26 06:48:21;;;;;;;7.25;0.80;;;13.30;60.20;;;;;;5026873;28;20110;-64
2021/04/26 06:50:46;;;;;;;4.10;0.90;;;13.00;61.70;;;;;;5026130;28;20519;-64
2021/04/26 06:53:13;;;;;;;3.30;0.73;;;12.70;63.90;;;;;;5023304;28;20040;-64
2021/04/26 06:55:39;;;;;;;4.13;0.90;;;12.50;65.70;;;;;;5026530;28;20041;-64
2021/04/26 06:58:05;;;;;;;5.53;0.75;;;12.40;66.40;;;;;;5027114;28;20045;-64
2021/04/26 07:00:31;;;;;;;5.80;1.17;;;12.30;68.00;;;;;;5017879;28;20044;-64
2021/04/26 07:02:57;;;;;;;2.97;0.73;;;12.30;69.20;;;;;;5026611;28;20067;-64
2021/04/26 07:05:24;;;;;;;5.20;1.50;;;12.50;70.30;;;;;;5026283;28;20083;-64
2021/04/26 07:07:50;;;;;;;7.80;1.27;;;12.50;70.10;;;;;;5026508;28;20045;-64
2021/04/26 07:10:16;;;;;;;7.25;1.08;;;12.30;70.20;;;;;;5026740;28;20040;-64
2021/04/26 07:12:42;;;;;;;7.50;0.80;;;12.30;71.70;;;;;;5027527;28;20107;-64
2021/04/26 07:15:11;;;;;;;4.65;0.90;;;12.30;72.60;;;;;;5026029;28;20045;-64
2021/04/26 07:17:37;;;;;;;10.55;1.15;;;12.40;72.00;;;;;;5027440;28;20049;-64
2021/04/26 07:20:05;;;;;;;5.25;0.70;;;12.40;70.20;;;;;;5025725;28;20045;-64
2021/04/26 07:22:30;;;;;;;7.60;1.02;;;12.40;70.10;;;;;;5024826;28;20136;-64
2021/04/26 07:24:56;;;;;;;8.05;1.73;;;12.30;71.80;;;;;;5026614;28;20136;-64
2021/04/26 07:27:22;;;;;;;8.57;1.10;;;12.50;71.30;;;;;;5025110;28;20110;-64
2021/04/26 07:29:48;;;;;;;6.95;0.77;;;12.60;72.60;;;;;;5026233;28;20491;-64
2021/04/26 07:32:14;;;;;;;8.52;1.85;;;12.60;69.60;;;;;;5026107;28;20621;-64
2021/04/26 07:34:40;;;;;;;5.20;1.00;;;12.70;70.60;;;;;;5024834;28;20065;-64
2021/04/26 07:37:06;;;;;;;8.98;1.13;;;12.60;70.10;;;;;;5026084;28;20407;-64
2021/04/26 07:39:31;;;;;;;3.97;0.70;;;12.70;69.30;;;;;;5026763;28;20029;-64
2021/04/26 07:41:58;;;;;;;4.05;0.88;;;12.70;67.60;;;;;;5027134;28;20110;-64
2021/04/26 07:44:26;;;;;;;2.83;0.75;;;12.70;67.70;;;;;;5025163;28;20037;-65
2021/04/26 07:46:52;;;;;;;4.15;1.13;;;12.40;66.30;;;;;;5025245;28;20041;-64
2021/04/26 07:49:18;;;;;;;3.90;0.93;;;12.30;66.80;;;;;;5026408;28;20045;-64
2021/04/26 07:51:44;;;;;;;5.10;0.60;;;12.40;68.00;;;;;;5025989;28;20041;-64
2021/04/26 07:54:09;;;;;;;6.18;0.55;;;12.30;68.00;;;;;;5024063;28;20037;-64
2021/04/26 07:56:35;;;;;;;4.68;0.52;;;12.60;70.20;;;;;;5023388;28;20034;-64
2021/04/26 07:59:01;;;;;;;4.10;0.70;;;13.10;69.00;;;;;;5028338;28;20080;-64
2021/04/26 08:01:28;;;;;;;5.00;0.85;;;13.30;66.70;;;;;;5026070;28;20041;-65
2021/04/26 08:03:54;;;;;;;4.88;0.73;;;13.50;65.50;;;;;;5025154;28;20079;-64
2021/04/26 08:06:20;;;;;;;6.55;0.80;;;13.60;65.00;;;;;;5028123;28;20517;-64
2021/04/26 08:08:47;;;;;;;2.55;0.57;;;13.90;63.60;;;;;;5028661;28;20094;-64
2021/04/26 08:11:12;;;;;;;4.32;0.68;;;14.20;61.20;;;;;;5028386;28;20037;-65
2021/04/26 08:13:39;;;;;;;7.32;0.85;;;14.40;59.10;;;;;;5029920;28;20091;-64
2021/04/26 08:16:05;;;;;;;3.33;1.10;;;14.60;58.50;;;;;;5027340;28;20049;-65
2021/04/26 08:18:31;;;;;;;11.25;1.83;;;14.60;55.90;;;;;;5027748;28;20048;-65
2021/04/26 08:20:58;;;;;;;5.78;2.05;;;14.70;55.40;;;;;;5028214;28;20132;-65
2021/04/26 08:23:24;;;;;;;2.95;0.50;;;14.90;55.40;;;;;;5027745;28;20041;-64
2021/04/26 08:25:50;;;;;;;3.13;0.60;;;14.80;52.70;;;;;;5027788;28;20908;-64
2021/04/26 08:28:18;;;;;;;2.60;0.52;;;14.90;50.90;;;;;;5030128;28;20045;-64
2021/04/26 08:30:45;;;;;;;2.60;0.45;;;14.10;52.20;;;;;;5026764;28;20029;-64
2021/04/26 08:33:10;;;;;;;6.95;0.80;;;14.10;54.60;;;;;;5028060;28;20037;-64
2021/04/26 08:35:36;;;;;;;3.00;0.65;;;14.20;51.50;;;;;;5027144;28;20096;-64
2021/04/26 08:38:02;;;;;;;2.42;0.60;;;14.50;51.10;;;;;;5025959;28;20030;-64
2021/04/26 08:40:28;;;;;;;3.35;0.60;;;14.80;51.80;;;;;;5027204;28;20044;-64
2021/04/26 08:42:54;;;;;;;3.97;0.60;;;14.60;48.90;;;;;;5029284;28;20069;-64
2021/04/26 08:45:20;;;;;;;2.38;0.60;;;14.70;49.00;;;;;;5027960;28;20395;-65
2021/04/26 08:47:46;;;;;;;5.85;0.68;;;14.80;49.70;;;;;;5028100;28;20148;-64
2021/04/26 08:50:12;;;;;;;2.90;0.60;;;14.80;49.80;;;;;;5028692;28;20501;-65
2021/04/26 08:52:40;;;;;;;4.90;0.68;;;14.60;48.30;;;;;;5027051;28;20033;-65
2021/04/26 08:55:07;;;;;;;2.22;0.60;;;13.30;46.40;;;;;;5027961;28;20393;-64
2021/04/26 08:57:33;;;;;;;5.68;0.57;;;13.40;49.20;;;;;;5027252;28;20063;-64
2021/04/26 09:00:00;;;;;;;2.28;0.55;;;13.20;47.60;;;;;;5028439;28;20033;-64
2021/04/26 09:02:25;;;;;;;4.68;0.80;;;12.90;47.80;;;;;;5029448;28;20037;-64
2021/04/26 09:04:55;;;;;;;2.05;0.60;;;12.60;47.40;;;;;;5029019;28;20041;-64
2021/04/26 09:07:22;;;;;;;4.28;0.50;;;12.50;49.30;;;;;;5029799;28;20053;-64
2021/04/26 09:09:52;;;;;;;4.63;0.75;;;12.60;49.20;;;;;;5027333;28;20045;-64
2021/04/26 09:12:28;;;;;;;3.17;0.80;;;12.70;49.60;;;;;;5027951;28;20053;-65
2021/04/26 09:15:04;;;;;;;2.08;0.40;;;12.80;51.10;;;;;;5027875;28;20076;-64
2021/04/26 09:17:34;;;;;;;4.10;0.70;;;12.80;47.90;;;;;;5028431;28;20041;-64
2021/04/26 09:20:15;;;;;;;2.42;0.93;;;12.90;49.80;;;;;;5026826;28;20041;-65
2021/04/26 09:22:55;;;;;;;5.38;0.88;;;13.00;48.70;;;;;;5029680;28;20382;-64
2021/04/26 09:25:25;;;;;;;3.53;0.63;;;12.90;47.40;;;;;;5027189;28;20099;-64
2021/04/26 09:28:02;;;;;;;3.22;0.80;;;13.00;47.70;;;;;;5027576;28;20037;-64
2021/04/26 09:30:47;;;;;;;2.60;0.70;;;13.00;48.30;;;;;;5027787;28;20125;-64
2021/04/26 09:33:34;;;;;;;2.45;0.50;;;13.00;48.60;;;;;;5025529;28;20045;-64
2021/04/26 09:36:14;;;;;;;4.32;0.70;;;12.80;46.20;;;;;;5027686;28;20459;-64
2021/04/26 09:38:43;;;;;;;5.57;0.93;;;12.90;48.70;;;;;;5029171;28;20471;-64
2021/04/26 09:41:29;;;;;;;7.47;0.77;;;12.90;47.60;;;;;;5029701;28;20041;-64
2021/04/26 09:44:01;;;;;;;2.33;0.65;;;13.10;48.70;;;;;;5020523;28;21016;-65
2021/04/26 09:46:41;;;;;;;3.25;0.50;;;13.20;48.40;;;;;;5020348;28;20578;-70
2021/04/26 09:49:09;;;;;;;9.45;3.25;;;13.40;47.20;;;;;;5021405;28;20045;-66
2021/04/26 09:51:36;;;;;;;1.98;0.55;;;13.70;49.10;;;;;;5026312;28;20519;-66
2021/04/26 09:54:02;;;;;;;3.95;0.93;;;13.80;48.60;;;;;;5027851;28;20041;-67
2021/04/26 09:56:30;;;;;;;3.17;0.68;;;14.00;49.80;;;;;;5029380;28;20038;-66
2021/04/26 09:58:58;;;;;;;4.53;0.85;;;14.10;48.30;;;;;;5029746;28;20045;-66
2021/04/26 10:01:25;;;;;;;7.28;0.65;;;14.10;47.60;;;;;;5029070;28;20439;-67
2021/04/26 10:03:51;;;;;;;3.35;0.68;;;14.20;45.80;;;;;;5024420;28;20037;-67
2021/04/26 10:06:19;;;;;;;3.78;0.85;;;14.30;46.70;;;;;;5022408;28;20091;-66
2021/04/26 10:08:46;;;;;;;2.17;0.50;;;14.10;44.60;;;;;;5018527;28;20159;-65
2021/04/26 10:11:12;;;;;;;4.97;0.60;;;14.00;45.40;;;;;;5024142;28;20041;-66
2021/04/26 10:13:38;;;;;;;1.00;0.47;;;13.90;47.40;;;;;;5027059;28;20551;-66
2021/04/26 10:16:08;;;;;;;4.20;1.17;;;13.90;46.90;;;;;;5025245;28;20364;-66
2021/04/26 10:18:37;;;;;;;3.65;0.50;;;13.80;45.80;;;;;;5020530;28;20442;-66
2021/04/26 10:21:23;;;;;;;2.10;0.30;;;13.60;45.10;;;;;;5026969;28;20048;-66
2021/04/26 10:23:50;;;;;;;2.60;0.57;;;13.50;45.60;;;;;;5020682;28;20506;-66
2021/04/26 10:26:48;;;;;;;5.82;0.93;;;13.50;46.70;;;;;;5027687;28;20119;-66
2021/04/26 10:29:27;;;;;;;4.38;0.70;;;13.70;45.60;;;;;;5027367;28;20424;-66
2021/04/26 10:31:59;;;;;;;2.15;0.65;;;13.60;45.90;;;;;;5028667;28;20041;-66
2021/04/26 10:34:35;;;;;;;1.58;0.50;;;13.50;45.20;;;;;;5028907;28;20045;-66
2021/04/26 10:37:22;;;;;;;6.43;1.05;;;13.30;45.90;;;;;;5024520;28;20041;-66
2021/04/26 10:40:00;;;;;;;2.95;0.60;;;13.60;45.60;;;;;;5023323;28;20553;-66
2021/04/26 10:42:42;;;;;;;4.18;0.43;;;13.60;45.30;;;;;;5020186;28;20037;-66
2021/04/26 10:45:19;;;;;;;3.47;0.90;;;13.50;44.30;;;;;;5024658;28;20430;-66
2021/04/26 10:47:47;;;;;;;2.70;0.65;;;13.40;42.30;;;;;;5027672;28;20052;-66
2021/04/26 10:50:15;;;;;;;3.35;0.30;;;13.80;42.90;;;;;;5027220;28;20507;-66
2021/04/26 10:52:53;;;;;;;3.08;0.63;;;14.20;43.60;;;;;;5026066;28;20033;-66
2021/04/26 10:55:18;;;;;;;2.10;0.90;;;14.30;44.20;;;;;;5026909;28;20399;-66
2021/04/26 10:57:51;;;;;;;2.80;0.57;;;14.10;45.30;;;;;;5028140;28;20037;-66
2021/04/26 11:00:23;;;;;;;1.27;0.70;;;13.70;41.20;;;;;;5025756;28;20037;-66
2021/04/26 11:03:00;;;;;;;5.63;0.75;;;13.60;42.80;;;;;;5029180;28;20168;-66
2021/04/26 11:05:28;;;;;;;3.88;0.77;;;13.60;44.30;;;;;;5026758;28;20118;-66
2021/04/26 11:07:58;;;;;;;4.78;0.68;;;13.70;42.70;;;;;;5028539;28;20050;-66
2021/04/26 11:10:30;;;;;;;1.85;0.40;;;13.80;42.20;;;;;;5028286;28;20040;-66
2021/04/26 11:12:58;;;;;;;1.35;0.50;;;14.00;42.40;;;;;;5026009;28;20117;-66
2021/04/26 11:15:25;;;;;;;4.45;0.50;;;13.90;42.20;;;;;;5026744;28;20045;-66
2021/04/26 11:17:52;;;;;;;3.25;0.60;;;13.90;44.60;;;;;;5026095;28;20091;-66
2021/04/26 11:20:22;;;;;;;1.77;0.60;;;13.90;44.10;;;;;;5028209;28;20068;-66
2021/04/26 11:22:52;;;;;;;3.13;0.55;;;13.40;42.00;;;;;;5027671;28;20037;-65
2021/04/26 11:25:38;;;;;;;3.75;0.77;;;13.40;43.80;;;;;;5028087;28;20068;-66
2021/04/26 11:28:04;;;;;;;4.10;0.70;;;13.40;43.60;;;;;;5026996;28;20076;-66
2021/04/26 11:30:35;;;;;;;2.58;0.68;;;13.50;43.20;;;;;;5027551;28;20076;-66
2021/04/26 11:33:02;;;;;;;2.63;0.40;;;13.40;41.80;;;;;;5026577;28;20076;-66
2021/04/26 11:35:30;;;;;;;3.63;0.80;;;13.20;41.10;;;;;;5028213;28;20044;-66
2021/04/26 11:37:56;;;;;;;1.15;0.43;;;12.90;42.10;;;;;;5027488;28;20044;-66
2021/04/26 11:40:25;;;;;;;3.45;0.57;;;12.90;43.00;;;;;;5027624;28;20041;-66
2021/04/26 11:42:51;;;;;;;5.53;1.05;;;13.10;42.80;;;;;;5026901;28;20105;-66
2021/04/26 11:45:21;;;;;;;1.45;0.40;;;13.20;44.90;;;;;;5026632;28;20106;-66
2021/04/26 11:47:48;;;;;;;3.10;0.60;;;13.60;45.00;;;;;;5025932;28;20038;-66
2021/04/26 11:50:14;;;;;;;2.67;0.90;;;13.50;45.20;;;;;;5027183;28;20523;-65
2021/04/26 11:52:40;;;;;;;4.20;0.63;;;13.60;44.50;;;;;;5025947;28;20041;-66
2021/04/26 11:55:10;;;;;;;6.90;1.05;;;13.70;45.50;;;;;;5027429;28;20049;-66
2021/04/26 11:57:48;;;;;;;8.48;0.75;;;13.80;44.10;;;;;;5025915;28;20049;-66
2021/04/26 12:00:26;;;;;;;2.55;0.73;;;13.90;45.30;;;;;;5027018;28;20040;-66
2021/04/26 12:03:00;;;;;;;36.38;8.48;;;14.00;45.90;;;;;;5027363;28;20426;-66
2021/04/26 12:05:26;;;;;;;1.35;0.60;;;14.10;47.20;;;;;;5023129;28;20099;-66
2021/04/26 12:07:54;;;;;;;5.13;0.70;;;14.30;45.20;;;;;;5027815;28;20033;-66
2021/04/26 12:10:28;;;;;;;2.33;0.77;;;14.30;42.90;;;;;;5027635;28;20030;-66
2021/04/26 12:13:03;;;;;;;28.70;8.55;;;14.40;41.40;;;;;;5026673;28;20079;-66
2021/04/26 12:15:29;;;;;;;3.17;0.60;;;14.40;47.10;;;;;;5024269;28;20083;-66
2021/04/26 12:17:57;;;;;;;1.98;0.77;;;14.60;47.30;;;;;;5027582;28;20045;-66
2021/04/26 12:20:28;;;;;;;3.58;0.57;;;14.90;46.60;;;;;;5027222;28;20086;-66
2021/04/26 12:22:56;;;;;;;4.45;1.15;;;15.10;45.80;;;;;;5026295;28;20150;-66
2021/04/26 12:25:25;;;;;;;9.48;1.70;;;15.20;45.60;;;;;;5026177;28;20041;-65
2021/04/26 12:28:02;;;;;;;6.40;1.92;;;15.20;45.10;;;;;;5026545;28;20036;-65
2021/04/26 12:30:28;;;;;;;3.17;1.02;;;15.10;45.80;;;;;;5026847;28;20037;-66
2021/04/26 12:32:58;;;;;;;4.07;0.60;;;15.10;44.10;;;;;;5026717;28;20503;-66
2021/04/26 12:35:29;;;;;;;3.53;0.95;;;15.10;43.60;;;;;;5022902;28;20041;-66
2021/04/26 12:37:56;;;;;;;4.15;0.77;;;14.90;41.10;;;;;;5025282;28;20044;-65
2021/04/26 12:40:25;;;;;;;3.75;0.75;;;14.70;40.30;;;;;;5028192;28;20041;-65
2021/04/26 12:42:56;;;;;;;4.75;0.82;;;14.40;43.60;;;;;;5024969;28;20442;-65
2021/04/26 12:45:24;;;;;;;6.93;0.82;;;14.60;45.30;;;;;;5028525;28;20045;-65
2021/04/26 12:48:09;;;;;;;3.08;1.02;;;14.80;46.00;;;;;;5025006;28;20155;-66
2021/04/26 12:50:39;;;;;;;2.70;1.10;;;15.00;44.10;;;;;;5030670;28;20561;-66
2021/04/26 12:53:12;;;;;;;2.17;0.60;;;15.10;43.90;;;;;;5027030;28;20048;-66
2021/04/26 12:55:47;;;;;;;9.68;3.33;;;15.20;44.90;;;;;;5029580;28;20056;-66
2021/04/26 12:58:16;;;;;;;2.83;0.88;;;15.20;44.30;;;;;;5028692;28;20488;-66